createdAt,value
2018-07-26T00:01:01.522Z,22.57
2018-07-26T00:02:11.332Z,22.59
2018-07-26T00:03:21.153Z,22.57
2018-07-26T00:04:31.238Z,22.61
2018-07-26T00:05:41.331Z,22.63
2018-07-26T00:06:51.156Z,22.59
2018-07-26T00:08:01.290Z,22.59
2018-07-26T00:09:11.384Z,22.66
2018-07-26T00:10:21.458Z,22.69
2018-07-26T00:11:31.545Z,22.61
2018-07-26T00:12:41.367Z,22.7
2018-07-26T00:13:50.932Z,22.7
2018-07-26T00:15:00.794Z,22.66
2018-07-26T00:16:10.879Z,22.67
2018-07-26T00:17:20.956Z,22.59
2018-07-26T00:18:30.775Z,22.6
2018-07-26T00:19:40.580Z,22.55
2018-07-26T00:20:50.413Z,22.51
2018-07-26T00:22:00.485Z,22.54
2018-07-26T00:23:10.554Z,22.51
2018-07-26T00:24:20.624Z,22.48
2018-07-26T00:25:30.716Z,22.51
2018-07-26T00:26:40.794Z,22.48
2018-07-26T00:27:50.856Z,22.41
2018-07-26T00:29:00.924Z,22.49
2018-07-26T00:30:11.007Z,22.44
2018-07-26T00:31:21.081Z,22.48
2018-07-26T00:32:31.159Z,22.54
2018-07-26T00:33:40.973Z,22.48
2018-07-26T00:34:51.054Z,22.54
2018-07-26T00:36:00.887Z,22.54
2018-07-26T00:37:10.983Z,22.54
2018-07-26T00:38:21.076Z,22.55
2018-07-26T00:39:31.146Z,22.52
2018-07-26T00:40:41.213Z,22.57
2018-07-26T00:41:50.770Z,22.49
2018-07-26T00:43:01.103Z,22.49
2018-07-26T00:44:11.184Z,22.51
2018-07-26T00:45:21.277Z,22.49
2018-07-26T00:46:31.368Z,22.45
2018-07-26T00:47:41.461Z,22.45
2018-07-26T00:48:51.797Z,22.45
2018-07-26T00:50:01.884Z,22.45
2018-07-26T00:51:11.966Z,22.45
2018-07-26T00:52:22.042Z,22.45
2018-07-26T00:53:32.113Z,22.55
2018-07-26T00:54:42.240Z,22.49
2018-07-26T00:55:52.328Z,22.49
2018-07-26T00:57:02.393Z,22.41
2018-07-26T00:58:12.468Z,22.46
2018-07-26T00:59:22.580Z,22.45
2018-07-26T01:00:32.662Z,22.44
2018-07-26T01:01:42.728Z,22.41
2018-07-26T01:02:52.817Z,22.44
2018-07-26T01:04:02.891Z,22.44
2018-07-26T01:05:13.062Z,22.33
2018-07-26T01:06:22.896Z,22.44
2018-07-26T01:07:32.990Z,22.38
2018-07-26T01:08:43.044Z,22.36
2018-07-26T01:09:53.106Z,22.45
2018-07-26T01:11:02.927Z,22.42
2018-07-26T01:12:13.000Z,22.42
2018-07-26T01:13:23.075Z,22.42
2018-07-26T01:14:33.132Z,22.39
2018-07-26T01:15:43.213Z,22.39
2018-07-26T01:16:53.292Z,22.27
2018-07-26T01:18:03.366Z,22.36
2018-07-26T01:19:13.192Z,22.29
2018-07-26T01:20:23.011Z,22.3
2018-07-26T01:21:33.086Z,22.26
2018-07-26T01:22:42.904Z,22.3
2018-07-26T01:23:52.982Z,22.24
2018-07-26T01:25:03.053Z,22.27
2018-07-26T01:26:12.879Z,22.16
2018-07-26T01:27:22.675Z,22.26
2018-07-26T01:28:32.239Z,22.23
2018-07-26T01:29:42.556Z,22.2
2018-07-26T01:30:52.380Z,22.16
2018-07-26T01:32:02.512Z,22.22
2018-07-26T01:33:12.576Z,22.2
2018-07-26T01:34:22.396Z,22.16
2018-07-26T01:35:32.219Z,22.18
2018-07-26T01:36:42.296Z,22.29
2018-07-26T01:37:52.367Z,22.22
2018-07-26T01:39:02.473Z,22.31
2018-07-26T01:40:12.536Z,22.23
2018-07-26T01:41:22.602Z,22.3
2018-07-26T01:42:32.415Z,22.38
2018-07-26T01:43:42.209Z,22.41
2018-07-26T01:44:52.289Z,22.3
2018-07-26T01:46:02.378Z,22.22
2018-07-26T01:47:12.461Z,22.3
2018-07-26T01:48:22.528Z,22.15
2018-07-26T01:49:32.610Z,22.22
2018-07-26T01:50:42.431Z,22.15
2018-07-26T01:51:52.556Z,22.2
2018-07-26T01:53:02.372Z,22.2
2018-07-26T01:54:12.191Z,22.12
2018-07-26T01:55:22.006Z,22.2
2018-07-26T01:56:31.828Z,22.15
2018-07-26T01:57:41.916Z,22.12
2018-07-26T01:58:51.995Z,22.16
2018-07-26T02:00:02.067Z,22.12
2018-07-26T02:01:12.147Z,22.16
2018-07-26T02:02:22.213Z,22.14
2018-07-26T02:03:32.085Z,22.2
2018-07-26T02:04:42.158Z,22.15
2018-07-26T02:05:52.288Z,22.23
2018-07-26T02:07:02.372Z,22.18
2018-07-26T02:08:12.439Z,22.18
2018-07-26T02:09:22.285Z,22.22
2018-07-26T02:10:32.123Z,22.23
2018-07-26T02:11:42.218Z,22.11
2018-07-26T02:12:52.038Z,22.22
2018-07-26T02:14:01.859Z,22.24
2018-07-26T02:15:11.664Z,22.31
2018-07-26T02:16:21.537Z,22.33
2018-07-26T02:17:31.605Z,22.29
2018-07-26T02:18:41.692Z,22.2
2018-07-26T02:19:51.501Z,22.26
2018-07-26T02:21:01.586Z,22.22
2018-07-26T02:22:11.677Z,22.22
2018-07-26T02:23:21.232Z,22.18
2018-07-26T02:24:31.311Z,22.23
2018-07-26T02:25:41.379Z,22.18
2018-07-26T02:26:51.453Z,22.24
2018-07-26T02:28:01.543Z,22.27
2018-07-26T02:29:11.613Z,22.27
2018-07-26T02:30:21.689Z,22.24
2018-07-26T02:31:31.779Z,22.27
2018-07-26T02:32:41.866Z,22.16
2018-07-26T02:33:51.946Z,22.23
2018-07-26T02:35:01.752Z,22.23
2018-07-26T02:36:11.845Z,22.2
2018-07-26T02:37:21.660Z,22.2
2018-07-26T02:38:31.574Z,22.12
2018-07-26T02:39:41.644Z,22.22
2018-07-26T02:40:51.455Z,22.12
2018-07-26T02:42:01.784Z,22.15
2018-07-26T02:43:11.864Z,22.18
2018-07-26T02:44:22.000Z,22.15
2018-07-26T02:45:32.098Z,22.16
2018-07-26T02:46:41.932Z,22.09
2018-07-26T02:47:52.016Z,22.12
2018-07-26T02:49:02.101Z,22.15
2018-07-26T02:50:12.177Z,22.16
2018-07-26T02:51:22.302Z,22.18
2018-07-26T02:52:32.406Z,22.11
2018-07-26T02:53:42.471Z,22.27
2018-07-26T02:54:52.280Z,22.26
2018-07-26T02:56:02.374Z,22.2
2018-07-26T02:57:12.259Z,22.24
2018-07-26T02:58:22.117Z,22.31
2018-07-26T02:59:32.188Z,22.31
2018-07-26T03:00:42.275Z,22.22
2018-07-26T03:01:52.373Z,22.33
2018-07-26T03:03:02.463Z,22.39
2018-07-26T03:35:17.729Z,20.86
2018-07-26T03:36:27.803Z,20.82
2018-07-26T03:37:37.883Z,20.85
2018-07-26T03:38:47.683Z,20.88
2018-07-26T03:39:57.755Z,20.96
2018-07-26T03:41:07.888Z,21.06
2018-07-26T03:42:19.591Z,21.13
2018-07-26T03:43:31.586Z,21.22
2018-07-26T03:44:41.880Z,21.38
2018-07-26T03:45:51.681Z,21.58
2018-07-26T03:47:01.758Z,21.55
2018-07-26T03:48:11.836Z,21.7
2018-07-26T03:49:21.912Z,21.85
2018-07-26T03:50:31.736Z,21.93
2018-07-26T03:51:41.810Z,22.11
2018-07-26T03:52:52.189Z,22.26
2018-07-26T03:54:01.557Z,22.27
2018-07-26T03:55:11.631Z,22.42
2018-07-26T03:56:21.728Z,22.54
2018-07-26T03:57:31.837Z,22.67
2018-07-26T03:58:41.650Z,22.71
2018-07-26T03:59:51.469Z,22.78
2018-07-26T04:01:01.527Z,22.89
2018-07-26T04:02:11.606Z,22.94
2018-07-26T04:03:21.804Z,22.99
2018-07-26T04:04:31.689Z,22.97
2018-07-26T04:05:41.500Z,23.1
2018-07-26T04:06:51.295Z,23.18
2018-07-26T04:08:01.375Z,23.21
2018-07-26T04:09:11.443Z,23.24
2018-07-26T04:10:21.592Z,23.35
2018-07-26T04:11:31.680Z,23.29
2018-07-26T04:12:41.537Z,23.37
2018-07-26T04:13:51.641Z,23.5
2018-07-26T04:15:01.497Z,23.44
2018-07-26T04:16:11.576Z,23.62
2018-07-26T04:17:21.652Z,23.66
2018-07-26T04:18:31.726Z,23.64
2018-07-26T04:19:41.842Z,23.75
2018-07-26T04:20:51.907Z,23.9
2018-07-26T04:22:01.465Z,23.99
2018-07-26T04:23:11.272Z,23.96
2018-07-26T04:24:21.342Z,24.03
2018-07-26T04:25:31.418Z,24.26
2018-07-26T04:26:41.517Z,24.86
2018-07-26T04:27:51.602Z,25.71
2018-07-26T04:29:01.690Z,25.93
2018-07-26T04:30:11.515Z,26.03
2018-07-26T04:31:21.323Z,26.01
2018-07-26T04:32:31.146Z,25.89
2018-07-26T04:33:41.231Z,25.75
2018-07-26T04:34:51.306Z,25.74
2018-07-26T04:36:01.381Z,25.6
2018-07-26T04:37:11.468Z,25.44
2018-07-26T04:38:21.288Z,25.32
2018-07-26T04:39:31.370Z,25.24
2018-07-26T04:40:41.455Z,25.04
2018-07-26T04:41:51.272Z,24.86
2018-07-26T04:43:01.575Z,24.71
2018-07-26T04:44:11.512Z,24.74
2018-07-26T04:45:21.643Z,24.7
2018-07-26T04:46:31.701Z,24.55
2018-07-26T04:47:41.589Z,24.54
2018-07-26T04:48:51.776Z,24.45
2018-07-26T04:50:02.002Z,24.56
2018-07-26T04:51:11.821Z,24.71
2018-07-26T04:52:21.905Z,24.86
2018-07-26T04:53:31.795Z,25.22
2018-07-26T04:54:42.140Z,25.56
2018-07-26T04:55:52.635Z,26.03
2018-07-26T04:57:02.464Z,26.97
2018-07-26T04:58:12.280Z,28.14
2018-07-26T04:59:22.091Z,29.13
2018-07-26T05:00:32.170Z,29.89
2018-07-26T05:01:42.250Z,30.54
2018-07-26T05:02:52.393Z,31.08
2018-07-26T05:04:02.218Z,31.49
2018-07-26T05:05:12.313Z,31.86
2018-07-26T05:06:22.385Z,32.08
2018-07-26T05:07:32.466Z,32.31
2018-07-26T05:08:42.548Z,32.53
2018-07-26T05:09:52.388Z,32.72
2018-07-26T05:11:02.459Z,32.93
2018-07-26T05:12:12.542Z,33.12
2018-07-26T05:13:22.631Z,33.29
2018-07-26T05:14:32.515Z,33.37
2018-07-26T05:15:42.341Z,33.34
2018-07-26T05:16:52.425Z,33.4
2018-07-26T05:18:02.503Z,33.48
2018-07-26T05:19:12.670Z,33.48
2018-07-26T05:20:22.870Z,33.56
2018-07-26T05:21:32.938Z,33.68
2018-07-26T05:22:43.020Z,33.69
2018-07-26T05:23:52.846Z,33.73
2018-07-26T05:25:02.926Z,33.73
2018-07-26T05:26:12.734Z,33.74
2018-07-26T05:27:22.811Z,33.81
2018-07-26T05:28:32.899Z,33.97
2018-07-26T05:29:42.984Z,34.02
2018-07-26T05:30:52.785Z,34.03
2018-07-26T05:32:02.901Z,34.02
2018-07-26T05:33:12.986Z,34.06
2018-07-26T05:34:23.068Z,34.02
2018-07-26T05:35:32.878Z,33.97
2018-07-26T05:36:42.966Z,34.02
2018-07-26T05:37:53.195Z,33.87
2018-07-26T05:39:03.365Z,33.71
2018-07-26T05:40:13.219Z,33.73
2018-07-26T05:41:23.311Z,33.66
2018-07-26T05:42:33.380Z,33.75
2018-07-26T05:43:43.529Z,33.74
2018-07-26T05:44:53.620Z,33.66
2018-07-26T05:46:03.708Z,33.56
2018-07-26T05:47:13.814Z,33.66
2018-07-26T05:48:23.892Z,33.59
2018-07-26T05:49:33.444Z,33.62
2018-07-26T05:50:43.542Z,33.61
2018-07-26T05:51:53.742Z,33.63
2018-07-26T05:53:03.890Z,33.61
2018-07-26T05:54:13.729Z,33.78
2018-07-26T05:55:23.545Z,33.73
2018-07-26T05:56:33.615Z,33.75
2018-07-26T05:57:43.698Z,33.59
2018-07-26T05:58:53.546Z,33.58
2018-07-26T06:00:03.691Z,33.47
2018-07-26T06:01:13.731Z,33.32
2018-07-26T06:02:23.813Z,33.29
2018-07-26T06:03:33.629Z,33.2
2018-07-26T06:04:43.773Z,33.02
2018-07-26T06:05:53.854Z,32.81
2018-07-26T06:07:03.933Z,32.3
2018-07-26T06:08:14.010Z,31.63
2018-07-26T06:09:24.095Z,31.08
2018-07-26T06:10:34.172Z,30.79
2018-07-26T06:11:44.254Z,30.47
2018-07-26T06:12:54.350Z,30.45
2018-07-26T06:14:04.165Z,30.82
2018-07-26T06:15:13.984Z,30.7
2018-07-26T06:16:24.122Z,30.24
2018-07-26T06:17:34.246Z,29.97
2018-07-26T06:18:44.327Z,29.67
2018-07-26T06:19:54.442Z,29.45
2018-07-26T06:21:04.522Z,29.33
2018-07-26T06:22:14.072Z,29.18
2018-07-26T06:23:24.178Z,28.95
2018-07-26T06:24:33.992Z,28.83
2018-07-26T06:25:44.058Z,28.68
2018-07-26T06:26:54.140Z,28.49
2018-07-26T06:28:04.325Z,28.45
2018-07-26T06:29:14.686Z,28.46
2018-07-26T06:30:24.495Z,28.46
2018-07-26T06:31:34.330Z,28.42
2018-07-26T06:32:44.149Z,28.45
2018-07-26T06:33:54.326Z,28.57
2018-07-26T06:35:04.413Z,28.7
2018-07-26T06:36:14.497Z,28.82
2018-07-26T06:37:24.316Z,29.01
2018-07-26T06:38:34.141Z,29.18
2018-07-26T06:39:44.268Z,29.3
2018-07-26T06:40:54.354Z,29.47
2018-07-26T06:42:04.423Z,29.58
2018-07-26T06:43:14.500Z,29.61
2018-07-26T06:44:24.330Z,29.63
2018-07-26T06:45:34.419Z,29.69
2018-07-26T06:46:44.523Z,29.79
2018-07-26T06:47:54.606Z,29.7
2018-07-26T06:49:04.698Z,29.85
2018-07-26T06:50:14.792Z,29.92
2018-07-26T06:51:24.599Z,29.91
2018-07-26T06:52:34.686Z,29.88
2018-07-26T06:53:44.965Z,29.79
2018-07-26T06:54:55.041Z,29.97
2018-07-26T06:56:05.105Z,30.11
2018-07-26T06:57:15.211Z,30.18
2018-07-26T06:58:25.272Z,30.34
2018-07-26T06:59:35.358Z,30.56
2018-07-26T07:00:45.502Z,30.57
2018-07-26T07:01:55.436Z,30.52
2018-07-26T07:03:05.279Z,30.49
2018-07-26T07:04:15.079Z,30.37
2018-07-26T07:05:25.150Z,30.26
2018-07-26T07:06:35.241Z,30.19
2018-07-26T07:07:45.371Z,30.14
2018-07-26T07:08:55.447Z,30.18
2018-07-26T07:10:05.719Z,30.09
2018-07-26T07:11:15.667Z,30.02
2018-07-26T07:12:25.767Z,30.04
2018-07-26T07:13:35.628Z,29.98
2018-07-26T07:14:45.444Z,29.91
2018-07-26T07:15:55.518Z,29.95
2018-07-26T07:17:05.599Z,29.81
2018-07-26T07:18:15.688Z,29.66
2018-07-26T07:19:25.768Z,29.57
2018-07-26T07:20:35.789Z,29.51
2018-07-26T07:21:45.572Z,29.45
2018-07-26T07:22:55.397Z,29.42
2018-07-26T07:24:05.217Z,29.43
2018-07-26T07:25:15.096Z,29.42
2018-07-26T07:26:24.927Z,29.54
2018-07-26T07:27:34.742Z,29.4
2018-07-26T07:28:44.296Z,29.4
2018-07-26T07:29:54.221Z,29.45
2018-07-26T07:31:04.410Z,29.21
2018-07-26T07:32:14.507Z,29.1
2018-07-26T07:33:24.456Z,28.94
2018-07-26T07:34:34.350Z,28.86
2018-07-26T07:35:44.538Z,28.88
2018-07-26T07:36:54.724Z,28.83
2018-07-26T07:38:04.828Z,28.86
2018-07-26T07:39:14.374Z,28.85
2018-07-26T07:40:24.190Z,28.88
2018-07-26T07:41:34.059Z,28.85
2018-07-26T07:42:44.208Z,28.98
2018-07-26T07:43:54.309Z,29.1
2018-07-26T07:45:04.180Z,29.1
2018-07-26T07:46:14.276Z,29.11
2018-07-26T07:47:24.098Z,29.23
2018-07-26T07:48:34.370Z,29.24
2018-07-26T07:49:44.197Z,29.26
2018-07-26T07:50:54.274Z,29.26
2018-07-26T07:52:04.396Z,29.33
2018-07-26T07:53:14.482Z,29.32
2018-07-26T07:54:24.576Z,29.32
2018-07-26T07:55:34.666Z,29.38
2018-07-26T07:56:44.762Z,29.42
2018-07-26T07:57:54.868Z,29.52
2018-07-26T07:59:05.002Z,29.42
2018-07-26T08:00:15.099Z,29.54
2018-07-26T08:01:25.186Z,29.5
2018-07-26T08:02:34.996Z,29.66
2018-07-26T08:03:44.820Z,29.67
2018-07-26T08:04:54.951Z,29.66
2018-07-26T08:06:05.035Z,29.61
2018-07-26T08:07:15.134Z,29.66
2018-07-26T08:08:24.721Z,29.65
2018-07-26T08:09:34.562Z,29.7
2018-07-26T08:10:44.634Z,29.79
2018-07-26T08:11:54.434Z,29.75
2018-07-26T08:13:04.523Z,29.72
2018-07-26T08:14:14.082Z,29.85
2018-07-26T08:15:24.175Z,29.91
2018-07-26T08:16:34.038Z,29.92
2018-07-26T08:17:44.111Z,30.03
2018-07-26T08:18:54.197Z,30.13
2018-07-26T08:20:04.282Z,30.02
2018-07-26T08:21:14.609Z,30.18
2018-07-26T08:22:24.790Z,30.19
2018-07-26T08:23:34.882Z,30.32
2018-07-26T08:24:44.984Z,30.47
2018-07-26T08:25:54.790Z,30.52
2018-07-26T08:27:04.870Z,30.63
2018-07-26T08:28:14.426Z,30.75
2018-07-26T08:29:24.683Z,30.73
2018-07-26T08:30:34.680Z,30.75
2018-07-26T08:31:44.528Z,30.78
2018-07-26T08:32:54.601Z,30.85
2018-07-26T08:34:04.734Z,30.89
2018-07-26T08:35:15.193Z,30.99
2018-07-26T08:36:25.308Z,31.1
2018-07-26T08:37:35.392Z,31.19
2018-07-26T08:38:45.478Z,31.26
2018-07-26T08:39:55.627Z,31.26
2018-07-26T08:41:05.345Z,31.37
2018-07-26T08:42:14.904Z,31.4
2018-07-26T08:43:24.726Z,31.45
2018-07-26T08:44:34.809Z,31.38
2018-07-26T08:45:44.630Z,31.5
2018-07-26T08:46:54.721Z,31.62
2018-07-26T08:48:04.589Z,31.71
2018-07-26T08:49:14.525Z,31.82
2018-07-26T08:50:24.836Z,31.9
2018-07-26T08:51:34.926Z,31.91
2018-07-26T08:52:45.004Z,32.05
2018-07-26T08:53:54.827Z,32.09
2018-07-26T08:55:04.697Z,32.2
2018-07-26T08:56:14.771Z,32.28
2018-07-26T08:57:24.885Z,32.39
2018-07-26T08:58:34.724Z,32.54
2018-07-26T08:59:44.866Z,32.68
2018-07-26T09:00:54.972Z,32.81
2018-07-26T09:02:05.083Z,33.05
2018-07-26T09:03:16.217Z,33.2
2018-07-26T09:04:27.855Z,33.2
2018-07-26T09:05:41.856Z,33.31
2018-07-26T09:06:56.476Z,33.36
2018-07-26T09:08:07.452Z,33.46
2018-07-26T09:09:17.695Z,33.36
2018-07-26T09:10:27.802Z,33.66
2018-07-26T09:11:38.072Z,33.84
2018-07-26T09:12:48.293Z,34.06
2018-07-26T09:13:58.480Z,34.19
2018-07-26T09:15:08.569Z,34.48
2018-07-26T09:16:18.662Z,34.64
2018-07-26T09:17:28.487Z,34.81
2018-07-26T09:18:38.584Z,34.79
2018-07-26T09:19:48.873Z,35.11
2018-07-26T09:20:58.927Z,35.33
2018-07-26T09:22:09.023Z,35.35
2018-07-26T09:23:19.113Z,35.55
2018-07-26T09:24:29.370Z,35.71
2018-07-26T09:25:39.662Z,35.84
2018-07-26T09:26:49.751Z,35.9
2018-07-26T09:27:59.846Z,35.98
2018-07-26T09:29:09.918Z,36.08
2018-07-26T09:30:20.011Z,36.02
2018-07-26T09:31:29.893Z,35.96
2018-07-26T09:32:39.980Z,35.92
2018-07-26T09:33:49.799Z,35.69
2018-07-26T09:34:59.885Z,35.4
2018-07-26T09:36:09.970Z,35.16
2018-07-26T09:37:19.805Z,35.08
2018-07-26T09:38:29.895Z,35.38
2018-07-26T09:39:39.445Z,35.52
2018-07-26T09:40:49.279Z,35.68
2018-07-26T09:41:59.361Z,35.99
2018-07-26T09:43:09.470Z,36.09
2018-07-26T09:44:19.276Z,36.14
2018-07-26T09:45:29.082Z,36.25
2018-07-26T09:46:39.182Z,36.28
2018-07-26T09:47:49.014Z,36.28
2018-07-26T09:48:59.080Z,36.21
2018-07-26T09:50:09.168Z,36.32
2018-07-26T09:51:19.245Z,36.18
2018-07-26T09:52:29.355Z,36.08
2018-07-26T09:53:39.469Z,36.24
2018-07-26T09:54:49.296Z,36.17
2018-07-26T09:55:59.444Z,36.22
2018-07-26T09:57:09.541Z,36.05
2018-07-26T09:58:19.455Z,35.92
2018-07-26T09:59:29.273Z,35.98
2018-07-26T10:00:39.350Z,35.94
2018-07-26T10:01:49.191Z,36.01
2018-07-26T10:02:59.483Z,36.05
2018-07-26T10:04:09.597Z,36.15
2018-07-26T10:05:19.691Z,36.18
2018-07-26T10:06:29.904Z,36.26
2018-07-26T10:07:40.002Z,36.37
2018-07-26T10:08:50.081Z,36.3
2018-07-26T10:10:00.185Z,36.36
2018-07-26T10:11:10.016Z,36.4
2018-07-26T10:12:20.117Z,36.53
2018-07-26T10:13:29.973Z,36.61
2018-07-26T10:14:40.059Z,36.68
2018-07-26T10:15:50.059Z,36.59
2018-07-26T10:17:00.383Z,36.53
2018-07-26T10:18:10.254Z,36.47
2018-07-26T10:19:19.815Z,36.49
2018-07-26T10:20:29.894Z,36.53
2018-07-26T10:21:39.993Z,36.46
2018-07-26T10:22:50.080Z,36.36
2018-07-26T10:24:00.157Z,36.3
2018-07-26T10:25:10.221Z,36.18
2018-07-26T10:26:20.312Z,36.26
2018-07-26T10:27:30.416Z,36.26
2018-07-26T10:28:40.284Z,36.25
2018-07-26T10:29:49.854Z,36.32
2018-07-26T10:30:59.687Z,36.28
2018-07-26T10:32:09.512Z,36.12
2018-07-26T10:33:19.607Z,35.82
2018-07-26T10:34:29.687Z,35.71
2018-07-26T10:35:39.784Z,35.55
2018-07-26T10:36:49.919Z,35.39
2018-07-26T10:37:59.745Z,35.28
2018-07-26T10:39:09.855Z,35.24
2018-07-26T10:40:19.964Z,35.04
2018-07-26T10:41:30.062Z,34.78
2018-07-26T10:42:40.195Z,34.63
2018-07-26T10:43:50.017Z,34.63
2018-07-26T10:45:00.115Z,34.59
2018-07-26T10:46:09.924Z,34.56
2018-07-26T10:47:19.771Z,34.45
2018-07-26T10:48:30.110Z,34.43
2018-07-26T10:49:40.224Z,34.19
2018-07-26T10:50:50.320Z,34.4
2018-07-26T10:52:00.188Z,34.63
2018-07-26T10:53:10.017Z,34.96
2018-07-26T10:54:20.151Z,35.26
2018-07-26T10:55:29.987Z,35.26
2018-07-26T10:56:39.806Z,35.4
2018-07-26T10:57:49.372Z,35.3
2018-07-26T10:58:59.194Z,35.57
2018-07-26T11:00:08.545Z,35.76
2018-07-26T11:01:18.153Z,36.08
2018-07-26T11:02:28.035Z,36.22
2018-07-26T11:03:38.186Z,36.43
2018-07-26T11:04:47.907Z,36.12
2018-07-26T11:05:58.021Z,35.6
2018-07-26T11:07:08.119Z,35.71
2018-07-26T11:08:18.214Z,35.68
2018-07-26T11:09:28.337Z,35.72
2018-07-26T11:10:38.533Z,35.89
2018-07-26T11:11:48.621Z,36.08
2018-07-26T11:12:58.705Z,36.28
2018-07-26T11:14:08.802Z,36.47
2018-07-26T11:15:18.669Z,36.75
2018-07-26T11:16:29.020Z,36.97
2018-07-26T11:17:38.649Z,37.02
2018-07-26T11:18:48.764Z,37
2018-07-26T11:19:58.638Z,36.81
2018-07-26T11:21:08.737Z,36.51
2018-07-26T11:22:18.834Z,36.44
2018-07-26T11:23:28.700Z,36.49
2018-07-26T11:24:38.780Z,36.58
2018-07-26T11:25:49.058Z,36.86
2018-07-26T11:26:59.129Z,36.97
2018-07-26T11:28:09.286Z,37.12
2018-07-26T11:29:19.426Z,37.24
2018-07-26T11:30:29.506Z,37.29
2018-07-26T11:31:39.574Z,37.31
2018-07-26T11:32:49.683Z,37.3
2018-07-26T11:33:59.776Z,37.3
2018-07-26T11:35:09.639Z,36.75
2018-07-26T11:36:19.756Z,36.26
2018-07-26T11:37:29.582Z,36.22
2018-07-26T11:38:39.675Z,36.49
2018-07-26T11:39:49.753Z,36.8
2018-07-26T11:40:59.863Z,36.81
2018-07-26T11:42:10.002Z,37
2018-07-26T11:43:19.868Z,36.74
2018-07-26T11:44:29.961Z,36.63
2018-07-26T11:45:39.790Z,36.41
2018-07-26T11:46:49.930Z,36.09
2018-07-26T11:48:00.015Z,36.26
2018-07-26T11:49:10.092Z,36.33
2018-07-26T11:50:20.168Z,36.34
2018-07-26T11:51:30.258Z,36.33
2018-07-26T11:52:40.462Z,36.43
2018-07-26T11:53:50.148Z,36.62
2018-07-26T11:55:00.236Z,36.88
2018-07-26T11:56:10.044Z,37
2018-07-26T11:57:19.875Z,37.29
2018-07-26T11:58:29.991Z,37.46
2018-07-26T11:59:40.078Z,37.62
2018-07-26T12:00:49.641Z,37.56
2018-07-26T12:01:59.807Z,37.61
2018-07-26T12:03:10.002Z,37.69
2018-07-26T12:04:20.092Z,37.72
2018-07-26T12:05:30.180Z,37.72
2018-07-26T12:06:40.011Z,37.66
2018-07-26T12:07:49.866Z,37.62
2018-07-26T12:08:59.953Z,37.57
2018-07-26T12:10:10.054Z,37.56
2018-07-26T12:11:19.636Z,37.59
2018-07-26T12:12:29.746Z,37.53
2018-07-26T12:13:39.837Z,37.48
2018-07-26T12:14:49.677Z,37.42
2018-07-26T12:15:59.493Z,37.34
2018-07-26T12:17:09.311Z,37.27
2018-07-26T12:18:19.405Z,37.24
2018-07-26T12:19:29.491Z,36.99
2018-07-26T12:20:39.663Z,36.63
2018-07-26T12:21:49.492Z,36.51
2018-07-26T12:22:59.642Z,36.8
2018-07-26T12:24:09.617Z,36.99
2018-07-26T12:25:19.462Z,37.14
2018-07-26T12:26:29.292Z,37.24
2018-07-26T12:27:39.139Z,37.34
2018-07-26T12:28:49.219Z,37.42
2018-07-26T12:29:59.045Z,37.27
2018-07-26T12:31:09.134Z,37.23
2018-07-26T12:32:19.279Z,37.05
2018-07-26T12:33:29.106Z,37
2018-07-26T12:34:39.258Z,36.93
2018-07-26T12:35:49.498Z,36.81
2018-07-26T12:36:59.854Z,36.78
2018-07-26T12:38:09.195Z,36.77
2018-07-26T12:39:19.287Z,36.83
2018-07-26T12:40:29.381Z,36.78
2018-07-26T12:41:39.485Z,36.75
2018-07-26T12:42:49.293Z,36.88
2018-07-26T12:43:59.115Z,36.78
2018-07-26T12:45:08.965Z,36.92
2018-07-26T12:46:19.283Z,36.67
2018-07-26T12:47:29.507Z,36.9
2018-07-26T12:48:39.902Z,37.17
2018-07-26T12:49:49.988Z,37.48
2018-07-26T12:50:59.834Z,37.81
2018-07-26T12:52:09.927Z,38
2018-07-26T12:53:20.088Z,38.24
2018-07-26T12:54:30.196Z,38.59
2018-07-26T12:55:40.528Z,38.56
2018-07-26T12:56:50.484Z,38.59
2018-07-26T12:58:00.561Z,38.43
2018-07-26T12:59:10.661Z,38.78
2018-07-26T13:00:20.498Z,39.16
2018-07-26T13:01:30.767Z,39.38
2018-07-26T13:02:41.102Z,39.37
2018-07-26T13:03:51.194Z,39.19
2018-07-26T13:05:01.307Z,39.27
2018-07-26T13:06:11.405Z,39.06
2018-07-26T13:07:21.710Z,38.89
2018-07-26T13:08:31.806Z,38.87
2018-07-26T13:09:41.645Z,39.09
2018-07-26T13:10:51.203Z,39.11
2018-07-26T13:12:00.761Z,38.66
2018-07-26T13:13:10.387Z,38.37
2018-07-26T13:14:20.480Z,38.05
2018-07-26T13:15:30.574Z,37.45
2018-07-26T13:16:40.685Z,37.07
2018-07-26T13:17:50.824Z,36.62
2018-07-26T13:19:00.911Z,36.34
2018-07-26T13:20:10.996Z,36.06
2018-07-26T13:21:20.846Z,35.72
2018-07-26T13:22:30.942Z,35.55
2018-07-26T13:23:41.044Z,35.42
2018-07-26T13:24:51.158Z,35.27
2018-07-26T13:26:01.287Z,34.94
2018-07-26T13:27:11.197Z,35.08
2018-07-26T13:28:21.205Z,35.04
2018-07-26T13:29:31.321Z,34.81
2018-07-26T13:30:41.210Z,34.69
2018-07-26T13:31:51.037Z,34.52
2018-07-26T13:33:01.133Z,34.39
2018-07-26T13:34:11.247Z,34.36
2018-07-26T13:35:21.467Z,34.56
2018-07-26T13:36:31.349Z,34.9
2018-07-26T13:37:41.451Z,34.84
2018-07-26T13:38:51.546Z,34.94
2018-07-26T13:40:01.557Z,35.28
2018-07-26T13:41:12.035Z,35.42
2018-07-26T13:42:22.195Z,35.68
2018-07-26T13:43:32.301Z,35.86
2018-07-26T13:44:42.391Z,35.9
2018-07-26T13:45:52.469Z,36.21
2018-07-26T13:47:02.312Z,36.33
2018-07-26T13:48:12.134Z,36.39
2018-07-26T13:49:22.233Z,36.55
2018-07-26T13:50:32.335Z,36.83
2018-07-26T13:51:42.427Z,37.11
2018-07-26T13:52:52.524Z,37.31
2018-07-26T13:54:02.663Z,37.39
2018-07-26T13:55:12.804Z,37.61
2018-07-26T13:56:22.890Z,37.8
2018-07-26T13:57:32.973Z,37.84
2018-07-26T13:58:42.821Z,37.91
2018-07-26T13:59:52.974Z,37.8
2018-07-26T14:01:02.802Z,37.41
2018-07-26T14:02:12.651Z,37.18
2018-07-26T14:03:22.748Z,36.99
2018-07-26T14:04:32.857Z,36.9
2018-07-26T14:05:42.936Z,36.73
2018-07-26T14:06:53.051Z,36.62
2018-07-26T14:08:03.155Z,36.75
2018-07-26T14:09:13.250Z,36.81
2018-07-26T14:10:23.357Z,37.02
2018-07-26T14:11:33.450Z,37.56
2018-07-26T14:12:43.450Z,37.56
2018-07-26T14:13:53.558Z,37.75
2018-07-26T14:15:03.115Z,38.09
2018-07-26T14:16:13.421Z,38
2018-07-26T14:17:23.532Z,37.66
2018-07-26T14:18:33.620Z,37.33
2018-07-26T14:19:43.237Z,37.12
2018-07-26T14:20:53.492Z,36.95
2018-07-26T14:22:03.726Z,36.75
2018-07-26T14:23:13.571Z,36.67
2018-07-26T14:24:23.941Z,36.59
2018-07-26T14:25:34.031Z,36.36
2018-07-26T14:26:44.133Z,36.06
2018-07-26T14:27:54.428Z,35.64
2018-07-26T14:29:04.281Z,35.33
2018-07-26T14:30:14.140Z,34.81
2018-07-26T14:31:24.240Z,34.34
2018-07-26T14:32:34.364Z,34.05
2018-07-26T14:33:44.501Z,33.73
2018-07-26T14:34:54.641Z,33.44
2018-07-26T14:36:04.747Z,33.28
2018-07-26T14:37:14.580Z,33.23
2018-07-26T14:38:24.965Z,33.05
2018-07-26T14:39:35.057Z,32.96
2018-07-26T14:40:45.189Z,32.98
2018-07-26T14:41:55.299Z,32.9
2018-07-26T14:43:05.122Z,32.84
2018-07-26T14:44:14.970Z,32.75
2018-07-26T14:45:25.075Z,32.74
2018-07-26T14:46:34.908Z,32.68
2018-07-26T14:47:45.026Z,32.59
2018-07-26T14:48:55.120Z,32.49
2018-07-26T14:50:05.261Z,32.38
2018-07-26T14:51:15.356Z,32.3
2018-07-26T14:52:25.270Z,32.17
2018-07-26T14:53:35.374Z,32.1
2018-07-26T14:54:45.476Z,32.06
2018-07-26T14:55:55.316Z,31.98
2018-07-26T14:57:05.154Z,31.93
2018-07-26T14:58:14.986Z,31.94
2018-07-26T14:59:25.064Z,31.87
2018-07-26T15:00:35.081Z,31.91
2018-07-26T15:01:45.334Z,31.87
2018-07-26T15:02:55.420Z,31.82
2018-07-26T15:04:05.497Z,31.8
2018-07-26T15:05:15.844Z,31.9
2018-07-26T15:06:26.141Z,31.93
2018-07-26T15:07:36.261Z,32
2018-07-26T15:08:46.374Z,32.1
2018-07-26T15:09:56.427Z,32.17
2018-07-26T15:11:06.334Z,32.27
2018-07-26T15:12:16.443Z,32.39
2018-07-26T15:13:26.550Z,32.46
2018-07-26T15:14:36.657Z,32.62
2018-07-26T15:15:46.740Z,32.69
2018-07-26T15:16:56.816Z,32.72
2018-07-26T15:18:06.650Z,32.91
2018-07-26T15:19:16.219Z,33.2
2018-07-26T15:20:26.436Z,33.4
2018-07-26T15:21:36.357Z,33.63
2018-07-26T15:22:46.431Z,33.97
2018-07-26T15:23:56.529Z,34.22
2018-07-26T15:25:06.617Z,34.48
2018-07-26T15:26:16.600Z,34.54
2018-07-26T15:27:27.115Z,34.63
2018-07-26T15:28:36.930Z,34.63
2018-07-26T15:29:47.037Z,34.74
2018-07-26T15:30:57.148Z,34.99
2018-07-26T15:32:07.251Z,35.24
2018-07-26T15:33:17.392Z,35.39
2018-07-26T15:34:27.486Z,35.52
2018-07-26T15:35:37.052Z,35.69
2018-07-26T15:36:46.876Z,35.77